createdAt,value
2023-03-26T00:01:44.460Z,98643.03
2023-03-26T00:04:44.877Z,98785.91
2023-03-26T00:07:37.419Z,98774.09
2023-03-26T00:10:13.065Z,98773.03
2023-03-26T00:12:44.408Z,98730.13
2023-03-26T00:15:18.982Z,98767.22
2023-03-26T00:17:48.872Z,98757.03
2023-03-26T00:20:19.405Z,98766.25
2023-03-26T00:22:56.471Z,98738.00
2023-03-26T00:25:25.978Z,98757.41
2023-03-26T00:28:03.323Z,98757.94
2023-03-26T00:30:38.264Z,98749.22
2023-03-26T00:33:13.841Z,98740.22
2023-03-26T00:35:47.409Z,98759.56
2023-03-26T00:38:20.750Z,98719.69
2023-03-26T00:40:51.224Z,98753.22
2023-03-26T00:43:40.911Z,98688.22
2023-03-26T00:46:11.945Z,98706.84
2023-03-26T00:48:45.766Z,98742.13
2023-03-26T00:51:18.217Z,98760.19
2023-03-26T00:53:49.512Z,98760.81
2023-03-26T00:56:19.539Z,98742.22
2023-03-26T00:58:50.169Z,98745.53
2023-03-26T01:01:27.515Z,98742.88
2023-03-26T01:06:36.758Z,98754.59
2023-03-26T01:09:14.865Z,98724.28
2023-03-26T01:11:45.325Z,98748.28
2023-03-26T01:14:19.373Z,98756.94
2023-03-26T01:16:53.065Z,98725.03
2023-03-26T01:19:29.311Z,98755.69
2023-03-26T01:22:00.736Z,98728.19
2023-03-26T01:24:31.698Z,98753.31
2023-03-26T01:27:17.908Z,98755.00
2023-03-26T01:29:55.691Z,98734.44
2023-03-26T01:32:44.318Z,98757.41
2023-03-26T01:35:24.536Z,98756.03
2023-03-26T01:38:13.045Z,98746.94
2023-03-26T01:40:49.589Z,98705.94
2023-03-26T01:43:28.193Z,98747.34
2023-03-26T01:46:01.177Z,98743.25
2023-03-26T01:48:34.793Z,98738.72
2023-03-26T01:51:04.134Z,98755.88
2023-03-26T01:53:35.584Z,98709.88
2023-03-26T01:56:15.507Z,98746.41
2023-03-26T01:59:05.084Z,98753.34
2023-03-26T02:01:44.960Z,98727.09
2023-03-26T02:04:26.395Z,98755.38
2023-03-26T02:07:02.187Z,98777.78
2023-03-26T02:09:37.088Z,98763.19
2023-03-26T02:12:09.818Z,98774.91
2023-03-26T02:14:39.450Z,98781.09
2023-03-26T02:17:10.207Z,98788.41
2023-03-26T02:19:42.256Z,98803.00
2023-03-26T02:22:15.921Z,98791.31
2023-03-26T02:24:47.142Z,98808.91
2023-03-26T02:27:18.567Z,98782.50
2023-03-26T02:29:50.410Z,98821.09
2023-03-26T02:32:22.970Z,98821.22
2023-03-26T02:34:52.626Z,98836.78
2023-03-26T02:37:21.985Z,98836.56
2023-03-26T02:39:56.906Z,98844.38
2023-03-26T02:42:37.032Z,98820.22
2023-03-26T02:45:09.714Z,98854.44
2023-03-26T02:48:02.171Z,98836.38
2023-03-26T02:50:54.677Z,98865.97
2023-03-26T02:53:29.957Z,98869.19
2023-03-26T02:56:17.922Z,98858.41
2023-03-26T02:59:02.777Z,98859.56
2023-03-26T03:01:35.200Z,98865.84
2023-03-26T03:04:05.501Z,98864.34
2023-03-26T03:06:40.582Z,98871.09
2023-03-26T03:09:12.738Z,98846.16
2023-03-26T03:12:04.692Z,98881.22
2023-03-26T03:14:37.847Z,98890.63
2023-03-26T03:17:07.082Z,98912.16
2023-03-26T03:19:37.925Z,98915.59
2023-03-26T03:22:07.381Z,98855.97
2023-03-26T03:24:37.079Z,98868.59
2023-03-26T03:27:06.651Z,98921.47
2023-03-26T03:29:39.017Z,98913.81
2023-03-26T03:32:27.736Z,98916.78
2023-03-26T03:35:03.259Z,98939.06
2023-03-26T03:37:32.721Z,98923.16
2023-03-26T03:40:02.744Z,98937.63
2023-03-26T03:42:35.517Z,98958.88
2023-03-26T03:45:08.236Z,98937.44
2023-03-26T03:47:58.896Z,98967.06
2023-03-26T03:50:42.275Z,98973.59
2023-03-26T03:53:30.520Z,98964.88
2023-03-26T03:56:03.731Z,98962.94
2023-03-26T03:58:58.518Z,98950.94
2023-03-26T04:01:36.800Z,98953.25
2023-03-26T04:04:10.684Z,98974.72
2023-03-26T04:06:58.748Z,98983.63
2023-03-26T04:09:33.362Z,98969.75
2023-03-26T04:12:11.315Z,98960.19
2023-03-26T04:14:44.677Z,98948.22
2023-03-26T04:17:22.022Z,98937.19
2023-03-26T04:19:55.266Z,98991.59
2023-03-26T04:22:34.746Z,98988.19
2023-03-26T04:25:07.785Z,98981.75
2023-03-26T04:27:52.636Z,98982.00
2023-03-26T04:30:38.429Z,99007.81
2023-03-26T04:33:28.444Z,98998.09
2023-03-26T04:36:03.705Z,99014.13
2023-03-26T04:38:42.241Z,99015.03
2023-03-26T04:41:14.334Z,98994.06
2023-03-26T04:44:12.068Z,98996.75
2023-03-26T04:46:53.040Z,99022.03
2023-03-26T04:49:30.408Z,99017.78
2023-03-26T04:52:00.114Z,99026.91
2023-03-26T04:54:52.581Z,98968.97
2023-03-26T04:57:27.737Z,99027.28
2023-03-26T05:00:15.572Z,99029.69
2023-03-26T05:02:50.479Z,99027.72
2023-03-26T05:05:22.138Z,99000.19
2023-03-26T05:07:56.887Z,99040.16
2023-03-26T05:10:26.228Z,99016.59
2023-03-26T05:13:04.719Z,99036.91
2023-03-26T05:15:38.159Z,99040.50
2023-03-26T05:18:29.005Z,98962.13
2023-03-26T05:21:00.649Z,99050.16
2023-03-26T05:23:32.650Z,98999.75
2023-03-26T05:26:20.511Z,99040.22
2023-03-26T05:28:50.444Z,99044.31
2023-03-26T05:31:52.408Z,99059.25
2023-03-26T05:34:24.259Z,99061.41
2023-03-26T05:36:55.419Z,99056.59
2023-03-26T05:39:43.958Z,99052.19
2023-03-26T05:42:46.697Z,99017.16
2023-03-26T05:45:33.601Z,99063.97
2023-03-26T05:48:14.804Z,98987.44
2023-03-26T05:50:52.886Z,99080.13
2023-03-26T05:53:25.071Z,99057.50
2023-03-26T05:56:12.764Z,99019.63
2023-03-26T05:59:22.043Z,99053.09
2023-03-26T06:02:00.249Z,99076.66
2023-03-26T06:04:35.311Z,99047.91
2023-03-26T06:07:34.115Z,99060.78
2023-03-26T06:10:24.798Z,99082.41
2023-03-26T06:12:56.696Z,99085.78
2023-03-26T06:15:26.134Z,99030.19
2023-03-26T06:18:02.622Z,99081.97
2023-03-26T06:20:53.018Z,99067.31
2023-03-26T06:23:45.520Z,99053.56
2023-03-26T06:26:42.854Z,99067.78
2023-03-26T06:29:27.563Z,99082.28
2023-03-26T06:32:38.149Z,99088.88
2023-03-26T06:38:34.377Z,99039.84
2023-03-26T06:41:06.870Z,99048.31
2023-03-26T06:43:42.912Z,98997.00
2023-03-26T06:46:31.206Z,99048.44
2023-03-26T06:49:19.646Z,99066.66
2023-03-26T06:52:08.359Z,99075.38
2023-03-26T06:54:46.773Z,99042.41
2023-03-26T06:57:46.169Z,99069.63
2023-03-26T07:00:55.597Z,99078.69
2023-03-26T07:03:47.386Z,99074.72
2023-03-26T07:06:36.096Z,99061.19
2023-03-26T07:09:30.358Z,99045.59
2023-03-26T07:12:02.402Z,99052.78
2023-03-26T07:15:00.232Z,99036.69
2023-03-26T07:17:58.248Z,99050.03
2023-03-26T07:20:34.154Z,99071.13
2023-03-26T07:23:03.872Z,99048.06
2023-03-26T07:25:59.115Z,99078.31
2023-03-26T07:29:23.969Z,99083.56
2023-03-26T07:32:39.582Z,99012.94
2023-03-26T07:35:34.125Z,98955.19
2023-03-26T07:38:52.413Z,99087.97
2023-03-26T07:42:07.171Z,99088.25
2023-03-26T07:45:04.721Z,99083.84
2023-03-26T07:47:47.368Z,99095.06
2023-03-26T07:50:29.284Z,99098.22
2023-03-26T07:53:19.006Z,99098.81
2023-03-26T07:56:09.176Z,99097.03
2023-03-26T07:59:21.637Z,99067.28
2023-03-26T08:02:56.142Z,99094.03
2023-03-26T08:05:58.561Z,99109.78
2023-03-26T08:09:05.955Z,99016.69
2023-03-26T08:12:05.298Z,99110.13
2023-03-26T08:14:50.105Z,98895.88
2023-03-26T08:17:25.125Z,99068.19
2023-03-26T08:20:14.037Z,99104.44
2023-03-26T08:22:50.965Z,99038.09
2023-03-26T08:25:29.710Z,99118.47
2023-03-26T08:28:12.045Z,99118.81
2023-03-26T08:30:42.423Z,99066.03
2023-03-26T08:33:19.220Z,99099.91
2023-03-26T08:35:51.026Z,99108.09
2023-03-26T08:38:23.680Z,99116.28
2023-03-26T08:41:43.460Z,99095.09
2023-03-26T08:44:47.945Z,98983.03
2023-03-26T08:47:32.563Z,99102.91
2023-03-26T08:50:22.263Z,99101.63
2023-03-26T08:53:15.926Z,98985.34
2023-03-26T08:56:08.825Z,99089.78
2023-03-26T09:03:06.611Z,99101.63
2023-03-26T09:06:05.208Z,99092.66
2023-03-26T09:09:19.077Z,99114.91
2023-03-26T09:12:16.512Z,99105.25
2023-03-26T09:15:17.792Z,99116.75
2023-03-26T09:18:53.815Z,99035.63
2023-03-26T09:22:10.843Z,99086.28
2023-03-26T09:25:11.533Z,99081.31
2023-03-26T09:28:06.177Z,99115.81
2023-03-26T09:31:05.015Z,99106.88
2023-03-26T09:33:59.684Z,99061.53
2023-03-26T09:36:48.374Z,99109.06
2023-03-26T09:39:27.306Z,99115.22
2023-03-26T09:42:12.144Z,99107.09
2023-03-26T09:45:10.700Z,99099.69
2023-03-26T09:48:21.561Z,99106.91
2023-03-26T09:51:28.074Z,99112.19
2023-03-26T09:54:21.867Z,99111.41
2023-03-26T09:57:00.805Z,99110.31
2023-03-26T10:00:01.130Z,99100.63
2023-03-26T10:02:50.928Z,99127.53
2023-03-26T10:05:42.631Z,99097.91
2023-03-26T10:08:35.765Z,99100.31
2023-03-26T10:11:19.172Z,99103.97
2023-03-26T10:14:00.424Z,99100.28
2023-03-26T10:16:43.068Z,99109.59
2023-03-26T10:19:31.353Z,99104.69
2023-03-26T10:22:09.724Z,99107.59
2023-03-26T10:24:57.873Z,99105.38
2023-03-26T10:27:42.316Z,99115.00
2023-03-26T10:30:36.975Z,99086.00
2023-03-26T10:33:25.074Z,99104.09
2023-03-26T10:36:19.290Z,99112.78
2023-03-26T10:39:04.103Z,99119.50
2023-03-26T10:41:46.441Z,99122.50
2023-03-26T10:44:46.544Z,99104.91
2023-03-26T10:47:35.114Z,99101.06
2023-03-26T10:50:34.909Z,99091.66
2023-03-26T10:53:10.484Z,99123.94
2023-03-26T10:55:51.958Z,99100.03
2023-03-26T10:58:26.729Z,99100.63
2023-03-26T11:01:09.292Z,98957.50
2023-03-26T11:03:55.004Z,99021.47
2023-03-26T11:06:46.759Z,99047.88
2023-03-26T11:09:27.237Z,99110.78
2023-03-26T11:12:26.222Z,99109.69
2023-03-26T11:15:04.885Z,99093.09
2023-03-26T11:17:56.218Z,99036.28
2023-03-26T11:21:19.833Z,98991.53
2023-03-26T11:24:06.474Z,99020.34
2023-03-26T11:26:46.298Z,99050.34
2023-03-26T11:29:33.700Z,99087.34
2023-03-26T11:32:07.833Z,99090.44
2023-03-26T11:34:41.057Z,99098.16
2023-03-26T11:37:18.328Z,99089.41
2023-03-26T11:39:56.714Z,99076.13
2023-03-26T11:42:29.952Z,99090.31
2023-03-26T11:45:02.407Z,99091.94
2023-03-26T11:47:44.700Z,99037.63
2023-03-26T11:50:41.164Z,98965.75
2023-03-26T11:53:15.093Z,99080.59
2023-03-26T11:55:57.774Z,99055.31
2023-03-26T11:58:36.331Z,99061.69
2023-03-26T12:01:15.628Z,99073.31
2023-03-26T12:04:07.897Z,99080.19
2023-03-26T12:06:37.994Z,99026.88
2023-03-26T12:09:18.984Z,99078.38
2023-03-26T12:11:56.057Z,99074.88
2023-03-26T12:14:28.542Z,99046.34
2023-03-26T12:17:03.717Z,99070.97
2023-03-26T12:19:40.763Z,99007.56
2023-03-26T12:22:41.129Z,99053.22
2023-03-26T12:25:17.528Z,99062.38
2023-03-26T12:27:50.782Z,99054.44
2023-03-26T12:30:25.493Z,98992.09
2023-03-26T12:33:05.775Z,99054.34
2023-03-26T12:35:38.215Z,99034.94
2023-03-26T12:38:23.938Z,99040.13
2023-03-26T12:41:08.540Z,99050.16
2023-03-26T12:44:48.007Z,99015.94
2023-03-26T12:47:58.180Z,99044.16
2023-03-26T12:50:15.258Z,99037.22
2023-03-26T12:53:09.536Z,99031.34
2023-03-26T12:56:01.548Z,98969.19
2023-03-26T12:58:51.524Z,99035.66
2023-03-26T13:01:35.802Z,99019.25
2023-03-26T13:04:37.621Z,99025.94
2023-03-26T13:07:18.855Z,99035.44
2023-03-26T13:10:08.967Z,99011.66
2023-03-26T13:12:47.346Z,99024.50
2023-03-26T13:15:26.188Z,99034.47
2023-03-26T13:18:12.567Z,99028.84
2023-03-26T13:20:52.734Z,98922.25
2023-03-26T13:23:37.876Z,98994.16
2023-03-26T13:26:33.555Z,99024.81
2023-03-26T13:29:14.873Z,98966.44
2023-03-26T13:31:55.125Z,99001.41
2023-03-26T13:34:41.559Z,99022.44
2023-03-26T13:37:17.738Z,99012.81
2023-03-26T13:40:11.277Z,99034.75
2023-03-26T13:43:23.681Z,98913.38
2023-03-26T13:46:02.089Z,99008.22
2023-03-26T13:48:37.189Z,99013.16
2023-03-26T13:51:26.630Z,99021.28
2023-03-26T13:54:00.615Z,99018.28
2023-03-26T13:56:43.376Z,99019.56
2023-03-26T13:59:20.687Z,98998.75
2023-03-26T14:01:56.717Z,99024.97
2023-03-26T14:04:36.097Z,98963.53
2023-03-26T14:07:15.934Z,99011.63
2023-03-26T14:09:53.101Z,98940.94
2023-03-26T14:12:31.978Z,98800.59
2023-03-26T14:15:06.888Z,98898.00
2023-03-26T14:17:42.655Z,98988.22
2023-03-26T14:20:53.733Z,99010.31
2023-03-26T14:23:36.156Z,99026.44
2023-03-26T14:26:20.748Z,99025.59
2023-03-26T14:29:18.822Z,98938.56
2023-03-26T14:31:59.367Z,99003.09
2023-03-26T14:34:39.963Z,98980.94
2023-03-26T14:37:45.071Z,98999.53
2023-03-26T14:40:37.261Z,98974.69
2023-03-26T14:43:28.400Z,99011.63
2023-03-26T14:46:17.642Z,99024.94
2023-03-26T14:49:13.872Z,98970.91
2023-03-26T14:51:55.471Z,99057.16
2023-03-26T14:54:27.333Z,99023.91
2023-03-26T14:58:15.477Z,98950.00
2023-03-26T15:01:23.107Z,99033.69
2023-03-26T15:04:34.673Z,99040.09
2023-03-26T15:07:47.158Z,99042.72
2023-03-26T15:10:27.779Z,99059.00
2023-03-26T15:13:13.772Z,98893.00
2023-03-26T15:16:09.777Z,99012.44
2023-03-26T15:19:10.558Z,98978.59
2023-03-26T15:22:39.068Z,99028.56
2023-03-26T15:25:38.981Z,99018.66
2023-03-26T15:28:49.590Z,99037.19
2023-03-26T15:31:47.837Z,98995.38
2023-03-26T15:34:49.686Z,99034.13
2023-03-26T15:37:52.085Z,99036.19
2023-03-26T15:40:46.893Z,99032.56
2023-03-26T15:43:20.286Z,99033.81
2023-03-26T15:45:53.988Z,99036.81
2023-03-26T15:48:52.370Z,99046.44
2023-03-26T15:51:47.789Z,99041.66
2023-03-26T15:54:26.192Z,99030.91
2023-03-26T15:57:09.547Z,99010.72
2023-03-26T15:59:50.129Z,99035.13
2023-03-26T16:02:35.026Z,99051.72
2023-03-26T16:05:22.317Z,99056.56
2023-03-26T16:08:06.164Z,99049.78
2023-03-26T16:10:41.706Z,99050.66
2023-03-26T16:13:36.266Z,98845.72
2023-03-26T16:16:42.136Z,99070.50
2023-03-26T16:19:37.296Z,99074.72
2023-03-26T16:22:09.990Z,99004.50
2023-03-26T16:24:46.968Z,99008.97
2023-03-26T16:27:34.064Z,98878.88
2023-03-26T16:30:18.929Z,99078.81
2023-03-26T16:32:56.577Z,99091.03
2023-03-26T16:35:42.209Z,99008.00
2023-03-26T16:38:14.779Z,98949.75
2023-03-26T16:41:03.424Z,98958.78
2023-03-26T16:43:46.230Z,99109.41
2023-03-26T16:46:32.693Z,99066.53
2023-03-26T16:49:14.118Z,99055.75
2023-03-26T16:52:09.763Z,99116.81
2023-03-26T16:54:49.331Z,99084.78
2023-03-26T16:57:28.553Z,99090.38
2023-03-26T17:00:17.943Z,99127.31
2023-03-26T17:02:57.203Z,99125.22
2023-03-26T17:05:37.013Z,99123.28
2023-03-26T17:08:16.569Z,99080.19
2023-03-26T17:10:57.623Z,99135.81
2023-03-26T17:13:39.616Z,99137.50
2023-03-26T17:16:17.902Z,99121.91
2023-03-26T17:18:55.749Z,99117.72
2023-03-26T17:21:46.099Z,99110.34
2023-03-26T17:24:27.562Z,99118.69
2023-03-26T17:27:34.259Z,99121.38
2023-03-26T17:30:35.393Z,99100.78
2023-03-26T17:33:17.909Z,99128.91
2023-03-26T17:35:49.572Z,99127.41
2023-03-26T17:38:58.959Z,99125.94
2023-03-26T17:41:51.511Z,99126.13
2023-03-26T17:44:39.109Z,99133.91
2023-03-26T17:47:20.094Z,99099.38
2023-03-26T17:49:55.182Z,99096.16
2023-03-26T17:52:30.545Z,98997.06
2023-03-26T17:55:05.893Z,99156.00
2023-03-26T17:57:44.578Z,99132.66
2023-03-26T18:00:23.013Z,99035.31
2023-03-26T18:02:58.641Z,99137.78
2023-03-26T18:05:31.140Z,99139.75
2023-03-26T18:08:37.421Z,99059.34
2023-03-26T18:11:30.843Z,99141.81
2023-03-26T18:14:38.958Z,99008.16
2023-03-26T18:17:09.723Z,99076.28
2023-03-26T18:19:53.591Z,99162.63
2023-03-26T18:22:25.760Z,99116.72
2023-03-26T18:25:02.635Z,99055.75
2023-03-26T18:27:47.766Z,99152.66
2023-03-26T18:33:26.282Z,99151.59
2023-03-26T18:36:40.182Z,99155.31
2023-03-26T18:39:21.100Z,99155.25
2023-03-26T18:42:22.679Z,98954.00
2023-03-26T18:45:02.676Z,99020.19
2023-03-26T18:47:41.400Z,99140.66
2023-03-26T18:50:26.906Z,99028.44
2023-03-26T18:53:00.766Z,99085.50
2023-03-26T18:55:34.651Z,99137.97
2023-03-26T18:58:22.362Z,99009.75
2023-03-26T19:00:59.908Z,98949.94
2023-03-26T19:03:36.590Z,99053.53
2023-03-26T19:06:21.160Z,99145.56
2023-03-26T19:08:57.277Z,99130.63
2023-03-26T19:11:31.955Z,99107.63
2023-03-26T19:14:16.512Z,99003.25
2023-03-26T19:17:03.037Z,98992.44
2023-03-26T19:19:54.422Z,99018.59
2023-03-26T19:22:44.811Z,99151.50
2023-03-26T19:25:31.456Z,99154.06
2023-03-26T19:28:15.933Z,99063.09
2023-03-26T19:31:06.540Z,98998.25
2023-03-26T19:33:51.348Z,98911.31
2023-03-26T19:36:26.939Z,99141.19
2023-03-26T19:39:21.718Z,98993.75
2023-03-26T19:42:09.160Z,98896.91
2023-03-26T19:45:17.698Z,99149.25
2023-03-26T19:48:14.431Z,99128.09
2023-03-26T19:50:57.675Z,99056.56
2023-03-26T19:53:44.595Z,99011.38
2023-03-26T19:56:21.579Z,99163.38
2023-03-26T19:59:00.592Z,99030.53
2023-03-26T20:01:33.652Z,99038.22
2023-03-26T20:04:06.661Z,99123.72
2023-03-26T20:06:43.777Z,99096.00
2023-03-26T20:09:16.588Z,98908.22
2023-03-26T20:11:50.098Z,98916.59
2023-03-26T20:15:19.116Z,98937.28
2023-03-26T20:17:59.252Z,98881.63
2023-03-26T20:21:08.863Z,98959.69
2023-03-26T20:24:18.432Z,98931.97
2023-03-26T20:27:03.202Z,98996.88
2023-03-26T20:29:38.254Z,99120.72
2023-03-26T20:32:18.588Z,99073.13
2023-03-26T20:34:53.615Z,99051.72
2023-03-26T20:37:28.712Z,98992.41
2023-03-26T20:40:02.010Z,99046.41
2023-03-26T20:42:37.999Z,99131.78
2023-03-26T20:45:21.482Z,99140.03
2023-03-26T20:47:54.562Z,98924.22
2023-03-26T20:50:41.582Z,99128.97
2023-03-26T20:53:33.124Z,99050.88
2023-03-26T20:56:04.165Z,99058.41
2023-03-26T20:58:44.162Z,98945.59
2023-03-26T21:01:19.966Z,98965.91
2023-03-26T21:04:02.786Z,98924.28
2023-03-26T21:06:33.062Z,98914.81
2023-03-26T21:09:06.981Z,99088.34
2023-03-26T21:11:51.837Z,98966.91
2023-03-26T21:14:34.198Z,99009.25
2023-03-26T21:17:10.640Z,99056.47
2023-03-26T21:19:40.918Z,99115.53
2023-03-26T21:22:26.387Z,98924.66
2023-03-26T21:25:15.379Z,98994.81
2023-03-26T21:27:59.248Z,99131.47
2023-03-26T21:30:29.203Z,99150.75
2023-03-26T21:33:00.419Z,99094.44
2023-03-26T21:35:30.724Z,99146.25
2023-03-26T21:38:00.596Z,99150.31
2023-03-26T21:40:35.683Z,99158.28
2023-03-26T21:47:24.093Z,99038.88
2023-03-26T21:49:56.180Z,99160.25
2023-03-26T21:52:28.813Z,98922.09
2023-03-26T21:55:06.858Z,99152.44
2023-03-26T21:57:50.807Z,99052.22
2023-03-26T22:00:30.621Z,99142.94
2023-03-26T22:03:14.833Z,99127.75
2023-03-26T22:05:56.906Z,99146.66
2023-03-26T22:08:37.168Z,99141.81
2023-03-26T22:11:11.401Z,99148.34
2023-03-26T22:13:41.415Z,99090.56
2023-03-26T22:16:12.063Z,99152.00
2023-03-26T22:18:46.259Z,99069.75
2023-03-26T22:21:17.819Z,99126.16
2023-03-26T22:23:52.825Z,99154.69
2023-03-26T22:26:26.459Z,99130.50
2023-03-26T22:28:55.682Z,99144.53
2023-03-26T22:31:28.098Z,99140.50
2023-03-26T22:33:57.606Z,99104.75
2023-03-26T22:36:28.997Z,99140.06
2023-03-26T22:38:58.728Z,99105.16
2023-03-26T22:41:29.669Z,99129.41
2023-03-26T22:44:09.245Z,99130.41
2023-03-26T22:46:46.114Z,99125.63
2023-03-26T22:49:16.160Z,99115.63
2023-03-26T22:51:51.729Z,99029.38
2023-03-26T22:54:24.804Z,99128.81
2023-03-26T22:56:57.933Z,99093.06
2023-03-26T22:59:28.006Z,99011.13
2023-03-26T23:01:58.760Z,99064.19
2023-03-26T23:04:30.635Z,99132.78
2023-03-26T23:07:03.840Z,99150.59
2023-03-26T23:09:40.311Z,99140.84
2023-03-26T23:12:12.472Z,99047.81
2023-03-26T23:14:44.358Z,99081.41
2023-03-26T23:17:14.759Z,99121.75
2023-03-26T23:19:49.577Z,99049.41
2023-03-26T23:22:20.417Z,99033.56
2023-03-26T23:24:49.721Z,99074.91
2023-03-26T23:27:22.609Z,98949.19
2023-03-26T23:29:55.800Z,99098.56
2023-03-26T23:32:26.370Z,98999.13
2023-03-26T23:34:57.311Z,99037.03
2023-03-26T23:37:35.118Z,99045.69
2023-03-26T23:40:10.206Z,99038.59
2023-03-26T23:42:40.207Z,99117.72
2023-03-26T23:45:10.210Z,99120.16
2023-03-26T23:47:42.377Z,99121.84
2023-03-26T23:50:16.094Z,99108.13
2023-03-26T23:52:47.090Z,99122.66
2023-03-26T23:55:16.730Z,99105.16
2023-03-26T23:57:47.698Z,99079.25
